sensor_id;sensor_type;location;lat;lon;timestamp;P1;durP1;ratioP1;P2;durP2;ratioP2
70675;SDS011;59069;52.242;20.900;2023-11-21T00:02:14;23.10;;;9.90;;
70675;SDS011;59069;52.242;20.900;2023-11-21T00:04:40;23.03;;;8.90;;
70675;SDS011;59069;52.242;20.900;2023-11-21T00:07:05;21.33;;;8.77;;
70675;SDS011;59069;52.242;20.900;2023-11-21T00:09:33;20.88;;;8.95;;
70675;SDS011;59069;52.242;20.900;2023-11-21T00:12:00;23.80;;;9.47;;
70675;SDS011;59069;52.242;20.900;2023-11-21T00:14:25;23.30;;;9.75;;
70675;SDS011;59069;52.242;20.900;2023-11-21T00:16:50;19.30;;;9.23;;
70675;SDS011;59069;52.242;20.900;2023-11-21T00:19:16;25.57;;;9.07;;
70675;SDS011;59069;52.242;20.900;2023-11-21T00:21:42;22.58;;;9.25;;
70675;SDS011;59069;52.242;20.900;2023-11-21T00:24:11;23.48;;;9.77;;
70675;SDS011;59069;52.242;20.900;2023-11-21T00:26:39;22.60;;;9.37;;
70675;SDS011;59069;52.242;20.900;2023-11-21T00:29:05;22.67;;;9.52;;
70675;SDS011;59069;52.242;20.900;2023-11-21T00:31:34;21.60;;;9.15;;
70675;SDS011;59069;52.242;20.900;2023-11-21T00:34:02;21.33;;;9.02;;
70675;SDS011;59069;52.242;20.900;2023-11-21T00:36:31;24.88;;;8.63;;
70675;SDS011;59069;52.242;20.900;2023-11-21T00:38:57;24.00;;;9.97;;
70675;SDS011;59069;52.242;20.900;2023-11-21T00:41:24;25.15;;;9.73;;
70675;SDS011;59069;52.242;20.900;2023-11-21T00:43:52;23.48;;;8.95;;
70675;SDS011;59069;52.242;20.900;2023-11-21T00:46:19;26.80;;;9.35;;
70675;SDS011;59069;52.242;20.900;2023-11-21T00:48:44;25.37;;;9.00;;
70675;SDS011;59069;52.242;20.900;2023-11-21T00:51:10;29.13;;;9.93;;
70675;SDS011;59069;52.242;20.900;2023-11-21T00:53:35;22.70;;;9.53;;
70675;SDS011;59069;52.242;20.900;2023-11-21T00:56:01;25.40;;;9.68;;
70675;SDS011;59069;52.242;20.900;2023-11-21T00:58:27;23.70;;;10.00;;
70675;SDS011;59069;52.242;20.900;2023-11-21T01:00:53;26.02;;;9.70;;
70675;SDS011;59069;52.242;20.900;2023-11-21T01:03:19;26.77;;;10.55;;
70675;SDS011;59069;52.242;20.900;2023-11-21T01:05:44;25.47;;;10.27;;
70675;SDS011;59069;52.242;20.900;2023-11-21T01:08:11;25.80;;;11.20;;
70675;SDS011;59069;52.242;20.900;2023-11-21T01:10:36;23.85;;;10.43;;
70675;SDS011;59069;52.242;20.900;2023-11-21T01:13:02;26.37;;;10.80;;
70675;SDS011;59069;52.242;20.900;2023-11-21T01:15:30;25.05;;;10.02;;
70675;SDS011;59069;52.242;20.900;2023-11-21T01:17:55;23.73;;;9.63;;
70675;SDS011;59069;52.242;20.900;2023-11-21T01:20:21;23.83;;;10.33;;
70675;SDS011;59069;52.242;20.900;2023-11-21T01:22:46;25.23;;;10.67;;
70675;SDS011;59069;52.242;20.900;2023-11-21T01:25:14;21.45;;;9.65;;
70675;SDS011;59069;52.242;20.900;2023-11-21T01:27:41;22.27;;;9.55;;
70675;SDS011;59069;52.242;20.900;2023-11-21T01:30:07;26.40;;;10.23;;
70675;SDS011;59069;52.242;20.900;2023-11-21T01:32:33;24.45;;;10.50;;
70675;SDS011;59069;52.242;20.900;2023-11-21T01:34:59;21.63;;;9.03;;
70675;SDS011;59069;52.242;20.900;2023-11-21T01:37:25;27.05;;;10.23;;
70675;SDS011;59069;52.242;20.900;2023-11-21T01:39:52;24.25;;;10.45;;
70675;SDS011;59069;52.242;20.900;2023-11-21T01:42:21;24.87;;;10.33;;
70675;SDS011;59069;52.242;20.900;2023-11-21T01:44:46;21.85;;;10.23;;
70675;SDS011;59069;52.242;20.900;2023-11-21T01:47:12;24.40;;;10.73;;
70675;SDS011;59069;52.242;20.900;2023-11-21T01:49:39;27.25;;;10.82;;
70675;SDS011;59069;52.242;20.900;2023-11-21T01:52:05;25.30;;;10.48;;
70675;SDS011;59069;52.242;20.900;2023-11-21T01:54:31;24.38;;;10.68;;
70675;SDS011;59069;52.242;20.900;2023-11-21T01:56:57;25.33;;;9.83;;
70675;SDS011;59069;52.242;20.900;2023-11-21T01:59:28;21.42;;;9.35;;
70675;SDS011;59069;52.242;20.900;2023-11-21T02:01:59;22.48;;;9.70;;
70675;SDS011;59069;52.242;20.900;2023-11-21T02:04:24;25.07;;;10.37;;
70675;SDS011;59069;52.242;20.900;2023-11-21T02:06:50;23.30;;;9.90;;
70675;SDS011;59069;52.242;20.900;2023-11-21T02:09:16;24.38;;;10.25;;
70675;SDS011;59069;52.242;20.900;2023-11-21T02:11:42;24.37;;;9.60;;
70675;SDS011;59069;52.242;20.900;2023-11-21T02:14:09;23.58;;;9.95;;
70675;SDS011;59069;52.242;20.900;2023-11-21T02:16:35;22.02;;;9.43;;
70675;SDS011;59069;52.242;20.900;2023-11-21T02:19:01;25.10;;;10.18;;
70675;SDS011;59069;52.242;20.900;2023-11-21T02:21:29;22.60;;;10.37;;
70675;SDS011;59069;52.242;20.900;2023-11-21T02:23:56;23.05;;;9.90;;
70675;SDS011;59069;52.242;20.900;2023-11-21T02:26:21;23.43;;;10.20;;
70675;SDS011;59069;52.242;20.900;2023-11-21T02:28:47;24.23;;;9.68;;
70675;SDS011;59069;52.242;20.900;2023-11-21T02:31:12;21.47;;;9.83;;
70675;SDS011;59069;52.242;20.900;2023-11-21T02:33:38;22.63;;;9.45;;
70675;SDS011;59069;52.242;20.900;2023-11-21T02:36:04;23.17;;;9.53;;
70675;SDS011;59069;52.242;20.900;2023-11-21T02:38:30;28.33;;;9.93;;
70675;SDS011;59069;52.242;20.900;2023-11-21T02:40:57;21.60;;;9.50;;
70675;SDS011;59069;52.242;20.900;2023-11-21T02:43:24;20.95;;;8.88;;
70675;SDS011;59069;52.242;20.900;2023-11-21T02:45:49;20.85;;;8.85;;
70675;SDS011;59069;52.242;20.900;2023-11-21T02:48:15;20.70;;;8.33;;
70675;SDS011;59069;52.242;20.900;2023-11-21T02:50:40;22.53;;;9.73;;
70675;SDS011;59069;52.242;20.900;2023-11-21T02:53:06;21.88;;;9.15;;
70675;SDS011;59069;52.242;20.900;2023-11-21T02:55:32;20.30;;;8.63;;
70675;SDS011;59069;52.242;20.900;2023-11-21T02:58:00;23.98;;;10.20;;
70675;SDS011;59069;52.242;20.900;2023-11-21T03:00:26;23.13;;;9.43;;
70675;SDS011;59069;52.242;20.900;2023-11-21T03:02:51;23.27;;;9.07;;
70675;SDS011;59069;52.242;20.900;2023-11-21T03:05:18;21.52;;;8.95;;
70675;SDS011;59069;52.242;20.900;2023-11-21T03:07:43;20.43;;;8.20;;
70675;SDS011;59069;52.242;20.900;2023-11-21T03:10:09;23.17;;;9.83;;
70675;SDS011;59069;52.242;20.900;2023-11-21T03:12:36;23.38;;;9.43;;
70675;SDS011;59069;52.242;20.900;2023-11-21T03:15:05;23.30;;;9.25;;
70675;SDS011;59069;52.242;20.900;2023-11-21T03:17:34;19.48;;;9.32;;
70675;SDS011;59069;52.242;20.900;2023-11-21T03:20:00;21.20;;;9.00;;
70675;SDS011;59069;52.242;20.900;2023-11-21T03:22:25;22.90;;;9.03;;
70675;SDS011;59069;52.242;20.900;2023-11-21T03:24:51;23.30;;;9.65;;
70675;SDS011;59069;52.242;20.900;2023-11-21T03:27:17;25.42;;;9.30;;
70675;SDS011;59069;52.242;20.900;2023-11-21T03:29:43;24.23;;;8.70;;
70675;SDS011;59069;52.242;20.900;2023-11-21T03:32:10;21.90;;;9.68;;
70675;SDS011;59069;52.242;20.900;2023-11-21T03:34:42;23.83;;;9.40;;
70675;SDS011;59069;52.242;20.900;2023-11-21T03:37:19;24.50;;;9.73;;
70675;SDS011;59069;52.242;20.900;2023-11-21T03:39:45;22.50;;;9.53;;
70675;SDS011;59069;52.242;20.900;2023-11-21T03:42:11;22.20;;;9.60;;
70675;SDS011;59069;52.242;20.900;2023-11-21T03:44:36;22.03;;;9.63;;
70675;SDS011;59069;52.242;20.900;2023-11-21T03:47:02;22.23;;;8.97;;
70675;SDS011;59069;52.242;20.900;2023-11-21T03:49:27;21.65;;;8.85;;
70675;SDS011;59069;52.242;20.900;2023-11-21T03:51:54;21.57;;;8.80;;
70675;SDS011;59069;52.242;20.900;2023-11-21T03:54:20;21.75;;;9.05;;
70675;SDS011;59069;52.242;20.900;2023-11-21T03:56:46;20.23;;;8.53;;
70675;SDS011;59069;52.242;20.900;2023-11-21T03:59:11;20.43;;;8.07;;
70675;SDS011;59069;52.242;20.900;2023-11-21T04:01:37;20.63;;;7.90;;
70675;SDS011;59069;52.242;20.900;2023-11-21T04:04:02;22.57;;;8.80;;
70675;SDS011;59069;52.242;20.900;2023-11-21T04:06:29;20.48;;;8.35;;
70675;SDS011;59069;52.242;20.900;2023-11-21T04:08:54;19.95;;;7.85;;
70675;SDS011;59069;52.242;20.900;2023-11-21T04:11:20;21.87;;;8.60;;
70675;SDS011;59069;52.242;20.900;2023-11-21T04:13:45;18.27;;;7.53;;
70675;SDS011;59069;52.242;20.900;2023-11-21T04:16:12;17.15;;;7.47;;
70675;SDS011;59069;52.242;20.900;2023-11-21T04:18:37;19.17;;;7.70;;
70675;SDS011;59069;52.242;20.900;2023-11-21T04:21:07;19.07;;;6.80;;
70675;SDS011;59069;52.242;20.900;2023-11-21T04:23:33;17.00;;;6.85;;
70675;SDS011;59069;52.242;20.900;2023-11-21T04:25:59;15.95;;;6.22;;
70675;SDS011;59069;52.242;20.900;2023-11-21T04:28:25;16.90;;;6.68;;
70675;SDS011;59069;52.242;20.900;2023-11-21T04:30:50;17.27;;;7.33;;
70675;SDS011;59069;52.242;20.900;2023-11-21T04:33:16;16.45;;;7.07;;
70675;SDS011;59069;52.242;20.900;2023-11-21T04:35:42;16.53;;;6.57;;
70675;SDS011;59069;52.242;20.900;2023-11-21T04:38:07;18.85;;;7.07;;
70675;SDS011;59069;52.242;20.900;2023-11-21T04:40:33;15.97;;;6.30;;
70675;SDS011;59069;52.242;20.900;2023-11-21T04:42:58;16.13;;;6.03;;
70675;SDS011;59069;52.242;20.900;2023-11-21T04:45:23;15.27;;;6.60;;
70675;SDS011;59069;52.242;20.900;2023-11-21T04:47:49;15.40;;;6.50;;
70675;SDS011;59069;52.242;20.900;2023-11-21T04:50:14;15.27;;;6.82;;
70675;SDS011;59069;52.242;20.900;2023-11-21T04:52:40;15.50;;;6.33;;
70675;SDS011;59069;52.242;20.900;2023-11-21T04:55:05;14.40;;;6.27;;
70675;SDS011;59069;52.242;20.900;2023-11-21T04:57:35;16.02;;;6.35;;
70675;SDS011;59069;52.242;20.900;2023-11-21T05:00:01;14.98;;;6.88;;
70675;SDS011;59069;52.242;20.900;2023-11-21T05:02:26;15.80;;;6.37;;
70675;SDS011;59069;52.242;20.900;2023-11-21T05:04:51;15.33;;;5.93;;
70675;SDS011;59069;52.242;20.900;2023-11-21T05:07:18;15.87;;;6.07;;
70675;SDS011;59069;52.242;20.900;2023-11-21T05:09:43;16.15;;;6.88;;
70675;SDS011;59069;52.242;20.900;2023-11-21T05:12:11;18.13;;;6.27;;
70675;SDS011;59069;52.242;20.900;2023-11-21T05:14:36;17.17;;;6.25;;
70675;SDS011;59069;52.242;20.900;2023-11-21T05:17:02;17.63;;;6.40;;
70675;SDS011;59069;52.242;20.900;2023-11-21T05:19:29;14.65;;;6.13;;
70675;SDS011;59069;52.242;20.900;2023-11-21T05:21:54;18.67;;;6.80;;
70675;SDS011;59069;52.242;20.900;2023-11-21T05:24:20;15.47;;;6.10;;
70675;SDS011;59069;52.242;20.900;2023-11-21T05:26:45;14.17;;;5.73;;
70675;SDS011;59069;52.242;20.900;2023-11-21T05:29:11;13.03;;;5.17;;
70675;SDS011;59069;52.242;20.900;2023-11-21T05:31:36;19.42;;;6.55;;
70675;SDS011;59069;52.242;20.900;2023-11-21T05:34:03;14.47;;;5.83;;
70675;SDS011;59069;52.242;20.900;2023-11-21T05:36:30;14.63;;;5.75;;
70675;SDS011;59069;52.242;20.900;2023-11-21T05:38:55;12.60;;;5.35;;
70675;SDS011;59069;52.242;20.900;2023-11-21T05:41:21;16.00;;;5.77;;
70675;SDS011;59069;52.242;20.900;2023-11-21T05:43:46;13.93;;;5.37;;
70675;SDS011;59069;52.242;20.900;2023-11-21T05:46:12;14.77;;;5.82;;
70675;SDS011;59069;52.242;20.900;2023-11-21T05:48:38;15.00;;;5.70;;
70675;SDS011;59069;52.242;20.900;2023-11-21T05:51:06;13.20;;;5.97;;
70675;SDS011;59069;52.242;20.900;2023-11-21T05:53:33;13.15;;;5.47;;
70675;SDS011;59069;52.242;20.900;2023-11-21T05:55:58;12.87;;;5.27;;
70675;SDS011;59069;52.242;20.900;2023-11-21T05:58:24;16.47;;;6.30;;
70675;SDS011;59069;52.242;20.900;2023-11-21T06:00:49;12.40;;;5.53;;
70675;SDS011;59069;52.242;20.900;2023-11-21T06:03:15;13.53;;;5.40;;
70675;SDS011;59069;52.242;20.900;2023-11-21T06:05:42;15.30;;;6.00;;
70675;SDS011;59069;52.242;20.900;2023-11-21T06:08:08;13.23;;;5.43;;
70675;SDS011;59069;52.242;20.900;2023-11-21T06:10:34;21.27;;;8.50;;
70675;SDS011;59069;52.242;20.900;2023-11-21T06:12:59;24.23;;;9.17;;
70675;SDS011;59069;52.242;20.900;2023-11-21T06:15:25;15.05;;;6.15;;
70675;SDS011;59069;52.242;20.900;2023-11-21T06:17:50;17.27;;;6.90;;
70675;SDS011;59069;52.242;20.900;2023-11-21T06:20:19;16.25;;;5.93;;
70675;SDS011;59069;52.242;20.900;2023-11-21T06:22:46;14.57;;;6.13;;
70675;SDS011;59069;52.242;20.900;2023-11-21T06:25:13;15.65;;;6.53;;
70675;SDS011;59069;52.242;20.900;2023-11-21T06:27:39;16.30;;;6.57;;
70675;SDS011;59069;52.242;20.900;2023-11-21T06:30:07;21.23;;;7.72;;
70675;SDS011;59069;52.242;20.900;2023-11-21T06:32:34;16.73;;;7.03;;
70675;SDS011;59069;52.242;20.900;2023-11-21T06:35:01;18.97;;;6.70;;
70675;SDS011;59069;52.242;20.900;2023-11-21T06:37:30;16.02;;;6.10;;
70675;SDS011;59069;52.242;20.900;2023-11-21T06:39:57;15.75;;;6.45;;
70675;SDS011;59069;52.242;20.900;2023-11-21T06:42:23;14.55;;;5.95;;
70675;SDS011;59069;52.242;20.900;2023-11-21T06:44:52;14.75;;;6.68;;
70675;SDS011;59069;52.242;20.900;2023-11-21T06:47:19;15.97;;;6.27;;
70675;SDS011;59069;52.242;20.900;2023-11-21T06:49:49;29.67;;;13.13;;
70675;SDS011;59069;52.242;20.900;2023-11-21T06:52:15;23.00;;;10.50;;
70675;SDS011;59069;52.242;20.900;2023-11-21T06:54:41;15.93;;;6.45;;
70675;SDS011;59069;52.242;20.900;2023-11-21T06:57:07;14.33;;;6.10;;
70675;SDS011;59069;52.242;20.900;2023-11-21T06:59:33;17.25;;;6.53;;
70675;SDS011;59069;52.242;20.900;2023-11-21T07:01:59;15.03;;;5.87;;
70675;SDS011;59069;52.242;20.900;2023-11-21T07:04:24;16.20;;;6.45;;
70675;SDS011;59069;52.242;20.900;2023-11-21T07:06:53;15.40;;;6.50;;
70675;SDS011;59069;52.242;20.900;2023-11-21T07:09:19;16.80;;;6.47;;
70675;SDS011;59069;52.242;20.900;2023-11-21T07:11:47;15.75;;;6.97;;
70675;SDS011;59069;52.242;20.900;2023-11-21T07:14:13;17.08;;;6.72;;
70675;SDS011;59069;52.242;20.900;2023-11-21T07:16:39;19.02;;;6.80;;
70675;SDS011;59069;52.242;20.900;2023-11-21T07:19:05;18.23;;;6.13;;
70675;SDS011;59069;52.242;20.900;2023-11-21T07:21:34;18.15;;;7.10;;
70675;SDS011;59069;52.242;20.900;2023-11-21T07:24:01;18.23;;;6.43;;
70675;SDS011;59069;52.242;20.900;2023-11-21T07:26:31;14.98;;;6.30;;
70675;SDS011;59069;52.242;20.900;2023-11-21T07:28:57;16.57;;;6.20;;
70675;SDS011;59069;52.242;20.900;2023-11-21T07:31:22;16.90;;;6.30;;
70675;SDS011;59069;52.242;20.900;2023-11-21T07:33:49;16.55;;;7.05;;
70675;SDS011;59069;52.242;20.900;2023-11-21T07:36:16;15.50;;;6.57;;
70675;SDS011;59069;52.242;20.900;2023-11-21T07:38:43;18.00;;;6.70;;
70675;SDS011;59069;52.242;20.900;2023-11-21T07:41:09;15.90;;;6.30;;
70675;SDS011;59069;52.242;20.900;2023-11-21T07:43:35;16.40;;;6.67;;
70675;SDS011;59069;52.242;20.900;2023-11-21T07:46:01;16.30;;;6.53;;
70675;SDS011;59069;52.242;20.900;2023-11-21T07:48:30;19.08;;;6.75;;
70675;SDS011;59069;52.242;20.900;2023-11-21T07:50:56;15.85;;;6.47;;
70675;SDS011;59069;52.242;20.900;2023-11-21T07:53:23;19.17;;;7.78;;
70675;SDS011;59069;52.242;20.900;2023-11-21T07:55:50;16.63;;;6.87;;
70675;SDS011;59069;52.242;20.900;2023-11-21T07:58:16;16.55;;;6.53;;
70675;SDS011;59069;52.242;20.900;2023-11-21T08:00:41;17.00;;;6.57;;
70675;SDS011;59069;52.242;20.900;2023-11-21T08:03:07;15.45;;;6.38;;
70675;SDS011;59069;52.242;20.900;2023-11-21T08:05:32;17.90;;;6.40;;
70675;SDS011;59069;52.242;20.900;2023-11-21T08:07:58;16.53;;;5.87;;
70675;SDS011;59069;52.242;20.900;2023-11-21T08:10:23;17.40;;;6.63;;
70675;SDS011;59069;52.242;20.900;2023-11-21T08:12:50;16.20;;;6.32;;
70675;SDS011;59069;52.242;20.900;2023-11-21T08:15:15;17.13;;;6.70;;
70675;SDS011;59069;52.242;20.900;2023-11-21T08:17:41;14.90;;;6.53;;
70675;SDS011;59069;52.242;20.900;2023-11-21T08:20:06;18.23;;;6.73;;
70675;SDS011;59069;52.242;20.900;2023-11-21T08:22:33;16.90;;;6.63;;
70675;SDS011;59069;52.242;20.900;2023-11-21T08:24:59;18.67;;;7.10;;
70675;SDS011;59069;52.242;20.900;2023-11-21T08:27:25;17.93;;;6.13;;
70675;SDS011;59069;52.242;20.900;2023-11-21T08:29:50;15.87;;;6.53;;
70675;SDS011;59069;52.242;20.900;2023-11-21T08:32:17;16.13;;;6.95;;
70675;SDS011;59069;52.242;20.900;2023-11-21T08:34:43;17.05;;;6.25;;
70675;SDS011;59069;52.242;20.900;2023-11-21T08:37:09;17.42;;;7.00;;
70675;SDS011;59069;52.242;20.900;2023-11-21T08:39:36;16.40;;;6.38;;
70675;SDS011;59069;52.242;20.900;2023-11-21T08:42:03;63.27;;;24.03;;
70675;SDS011;59069;52.242;20.900;2023-11-21T08:44:28;19.52;;;8.60;;
70675;SDS011;59069;52.242;20.900;2023-11-21T08:46:55;20.33;;;7.07;;
70675;SDS011;59069;52.242;20.900;2023-11-21T08:49:21;16.97;;;7.37;;
70675;SDS011;59069;52.242;20.900;2023-11-21T08:51:46;21.65;;;7.70;;
70675;SDS011;59069;52.242;20.900;2023-11-21T08:54:11;17.53;;;7.57;;
70675;SDS011;59069;52.242;20.900;2023-11-21T08:56:37;18.43;;;7.77;;
70675;SDS011;59069;52.242;20.900;2023-11-21T08:59:02;18.87;;;7.47;;
70675;SDS011;59069;52.242;20.900;2023-11-21T09:01:29;22.83;;;8.98;;
70675;SDS011;59069;52.242;20.900;2023-11-21T09:03:57;18.02;;;7.63;;
70675;SDS011;59069;52.242;20.900;2023-11-21T09:06:23;19.80;;;7.73;;
70675;SDS011;59069;52.242;20.900;2023-11-21T09:08:49;18.00;;;7.78;;
70675;SDS011;59069;52.242;20.900;2023-11-21T09:11:14;16.57;;;7.00;;
70675;SDS011;59069;52.242;20.900;2023-11-21T09:13:40;16.07;;;6.90;;
70675;SDS011;59069;52.242;20.900;2023-11-21T09:16:05;17.77;;;7.30;;
70675;SDS011;59069;52.242;20.900;2023-11-21T09:18:31;18.55;;;7.45;;
70675;SDS011;59069;52.242;20.900;2023-11-21T09:20:57;16.97;;;7.10;;
70675;SDS011;59069;52.242;20.900;2023-11-21T09:23:23;19.10;;;7.57;;
70675;SDS011;59069;52.242;20.900;2023-11-21T09:25:49;15.68;;;6.88;;
70675;SDS011;59069;52.242;20.900;2023-11-21T09:28:16;17.10;;;7.00;;
70675;SDS011;59069;52.242;20.900;2023-11-21T09:30:42;20.40;;;7.25;;
70675;SDS011;59069;52.242;20.900;2023-11-21T09:33:08;18.65;;;7.05;;
70675;SDS011;59069;52.242;20.900;2023-11-21T09:35:37;17.20;;;7.33;;
70675;SDS011;59069;52.242;20.900;2023-11-21T09:38:03;17.60;;;7.03;;
70675;SDS011;59069;52.242;20.900;2023-11-21T09:40:35;21.02;;;8.13;;
70675;SDS011;59069;52.242;20.900;2023-11-21T09:43:00;18.20;;;7.10;;
70675;SDS011;59069;52.242;20.900;2023-11-21T09:45:34;15.83;;;7.27;;
70675;SDS011;59069;52.242;20.900;2023-11-21T09:48:00;18.30;;;6.75;;
70675;SDS011;59069;52.242;20.900;2023-11-21T09:50:26;15.93;;;6.78;;
70675;SDS011;59069;52.242;20.900;2023-11-21T09:55:40;19.25;;;8.18;;
70675;SDS011;59069;52.242;20.900;2023-11-21T09:58:09;16.60;;;7.20;;
70675;SDS011;59069;52.242;20.900;2023-11-21T10:00:41;18.52;;;7.00;;
70675;SDS011;59069;52.242;20.900;2023-11-21T10:03:07;16.88;;;7.43;;
70675;SDS011;59069;52.242;20.900;2023-11-21T10:05:34;18.80;;;7.50;;
70675;SDS011;59069;52.242;20.900;2023-11-21T10:08:00;16.58;;;6.72;;
70675;SDS011;59069;52.242;20.900;2023-11-21T10:10:26;14.13;;;6.50;;
70675;SDS011;59069;52.242;20.900;2023-11-21T10:12:57;17.48;;;7.03;;
70675;SDS011;59069;52.242;20.900;2023-11-21T10:15:28;15.63;;;6.53;;
70675;SDS011;59069;52.242;20.900;2023-11-21T10:17:55;19.50;;;7.95;;
70675;SDS011;59069;52.242;20.900;2023-11-21T10:20:20;16.88;;;7.43;;
70675;SDS011;59069;52.242;20.900;2023-11-21T10:22:49;16.10;;;6.50;;
70675;SDS011;59069;52.242;20.900;2023-11-21T10:25:15;16.50;;;6.90;;
70675;SDS011;59069;52.242;20.900;2023-11-21T10:27:41;18.73;;;7.63;;
70675;SDS011;59069;52.242;20.900;2023-11-21T10:30:08;19.23;;;7.03;;
70675;SDS011;59069;52.242;20.900;2023-11-21T10:32:37;17.37;;;7.80;;
70675;SDS011;59069;52.242;20.900;2023-11-21T10:35:07;18.85;;;7.85;;
70675;SDS011;59069;52.242;20.900;2023-11-21T10:37:44;18.02;;;7.85;;
70675;SDS011;59069;52.242;20.900;2023-11-21T10:40:10;23.35;;;8.45;;
70675;SDS011;59069;52.242;20.900;2023-11-21T10:42:39;18.80;;;8.45;;
70675;SDS011;59069;52.242;20.900;2023-11-21T10:45:05;18.70;;;7.43;;
70675;SDS011;59069;52.242;20.900;2023-11-21T10:47:43;19.02;;;8.43;;
70675;SDS011;59069;52.242;20.900;2023-11-21T10:50:09;19.83;;;7.93;;
70675;SDS011;59069;52.242;20.900;2023-11-21T10:52:37;17.95;;;7.63;;
70675;SDS011;59069;52.242;20.900;2023-11-21T10:55:25;20.38;;;8.43;;
70675;SDS011;59069;52.242;20.900;2023-11-21T10:57:52;22.27;;;8.43;;
70675;SDS011;59069;52.242;20.900;2023-11-21T11:00:18;21.30;;;9.05;;
70675;SDS011;59069;52.242;20.900;2023-11-21T11:02:53;18.25;;;7.80;;
70675;SDS011;59069;52.242;20.900;2023-11-21T11:05:24;20.35;;;8.68;;
70675;SDS011;59069;52.242;20.900;2023-11-21T11:08:03;22.13;;;8.35;;
70675;SDS011;59069;52.242;20.900;2023-11-21T11:10:30;22.87;;;9.23;;
70675;SDS011;59069;52.242;20.900;2023-11-21T11:12:56;19.40;;;8.65;;
70675;SDS011;59069;52.242;20.900;2023-11-21T11:15:23;23.70;;;8.20;;
70675;SDS011;59069;52.242;20.900;2023-11-21T11:17:49;20.85;;;8.70;;
70675;SDS011;59069;52.242;20.900;2023-11-21T11:20:16;20.73;;;8.67;;
70675;SDS011;59069;52.242;20.900;2023-11-21T11:26:07;19.60;;;8.60;;
70675;SDS011;59069;52.242;20.900;2023-11-21T11:34:08;16.00;;;7.13;;
70675;SDS011;59069;52.242;20.900;2023-11-21T11:36:47;19.80;;;7.53;;
70675;SDS011;59069;52.242;20.900;2023-11-21T11:39:29;18.93;;;8.07;;
70675;SDS011;59069;52.242;20.900;2023-11-21T11:42:02;19.50;;;8.52;;
70675;SDS011;59069;52.242;20.900;2023-11-21T11:47:24;20.42;;;8.30;;
70675;SDS011;59069;52.242;20.900;2023-11-21T11:52:51;20.53;;;8.60;;
70675;SDS011;59069;52.242;20.900;2023-11-21T11:55:18;19.70;;;8.50;;
70675;SDS011;59069;52.242;20.900;2023-11-21T11:57:47;18.92;;;8.02;;
70675;SDS011;59069;52.242;20.900;2023-11-21T12:03:13;20.75;;;8.60;;
70675;SDS011;59069;52.242;20.900;2023-11-21T12:05:39;22.97;;;8.70;;
70675;SDS011;59069;52.242;20.900;2023-11-21T12:08:07;23.80;;;8.80;;
70675;SDS011;59069;52.242;20.900;2023-11-21T12:10:33;21.37;;;8.90;;
70675;SDS011;59069;52.242;20.900;2023-11-21T12:13:05;23.98;;;8.95;;
70675;SDS011;59069;52.242;20.900;2023-11-21T12:15:33;21.25;;;7.85;;
70675;SDS011;59069;52.242;20.900;2023-11-21T12:17:59;19.13;;;8.23;;
70675;SDS011;59069;52.242;20.900;2023-11-21T12:20:25;19.10;;;7.67;;
70675;SDS011;59069;52.242;20.900;2023-11-21T12:22:52;18.05;;;8.27;;
70675;SDS011;59069;52.242;20.900;2023-11-21T12:25:23;16.77;;;7.47;;
70675;SDS011;59069;52.242;20.900;2023-11-21T12:27:50;17.02;;;8.38;;
70675;SDS011;59069;52.242;20.900;2023-11-21T12:30:18;23.30;;;9.15;;
70675;SDS011;59069;52.242;20.900;2023-11-21T12:32:45;20.80;;;8.87;;
70675;SDS011;59069;52.242;20.900;2023-11-21T12:35:14;23.73;;;9.15;;
70675;SDS011;59069;52.242;20.900;2023-11-21T12:37:41;22.55;;;9.60;;
70675;SDS011;59069;52.242;20.900;2023-11-21T12:40:10;19.45;;;8.45;;
70675;SDS011;59069;52.242;20.900;2023-11-21T12:42:45;17.63;;;8.57;;
70675;SDS011;59069;52.242;20.900;2023-11-21T12:47:45;21.13;;;8.98;;
70675;SDS011;59069;52.242;20.900;2023-11-21T12:50:12;21.27;;;8.73;;
70675;SDS011;59069;52.242;20.900;2023-11-21T12:52:42;22.65;;;8.98;;
70675;SDS011;59069;52.242;20.900;2023-11-21T12:55:18;21.85;;;8.80;;
70675;SDS011;59069;52.242;20.900;2023-11-21T12:57:48;22.70;;;9.13;;
70675;SDS011;59069;52.242;20.900;2023-11-21T13:00:19;18.60;;;8.13;;
70675;SDS011;59069;52.242;20.900;2023-11-21T13:02:55;17.60;;;8.32;;
70675;SDS011;59069;52.242;20.900;2023-11-21T13:07:57;19.33;;;8.27;;
70675;SDS011;59069;52.242;20.900;2023-11-21T13:10:25;23.17;;;8.70;;
70675;SDS011;59069;52.242;20.900;2023-11-21T13:12:54;20.00;;;8.07;;
70675;SDS011;59069;52.242;20.900;2023-11-21T13:15:23;19.08;;;8.02;;
70675;SDS011;59069;52.242;20.900;2023-11-21T13:17:49;16.80;;;7.75;;
70675;SDS011;59069;52.242;20.900;2023-11-21T13:20:16;19.65;;;9.10;;
70675;SDS011;59069;52.242;20.900;2023-11-21T13:22:48;19.90;;;8.83;;
70675;SDS011;59069;52.242;20.900;2023-11-21T13:25:16;17.27;;;7.57;;
70675;SDS011;59069;52.242;20.900;2023-11-21T13:27:43;20.48;;;8.88;;
70675;SDS011;59069;52.242;20.900;2023-11-21T13:30:10;20.77;;;9.48;;
70675;SDS011;59069;52.242;20.900;2023-11-21T13:32:40;25.05;;;9.90;;
70675;SDS011;59069;52.242;20.900;2023-11-21T13:35:09;21.80;;;8.07;;
70675;SDS011;59069;52.242;20.900;2023-11-21T13:37:46;20.48;;;8.98;;
70675;SDS011;59069;52.242;20.900;2023-11-21T13:40:14;23.10;;;10.13;;
70675;SDS011;59069;52.242;20.900;2023-11-21T13:42:45;21.90;;;9.88;;
70675;SDS011;59069;52.242;20.900;2023-11-21T13:45:10;19.13;;;8.97;;
70675;SDS011;59069;52.242;20.900;2023-11-21T13:47:37;21.88;;;9.35;;
70675;SDS011;59069;52.242;20.900;2023-11-21T13:50:03;22.38;;;8.82;;
70675;SDS011;59069;52.242;20.900;2023-11-21T13:52:37;24.23;;;9.32;;
70675;SDS011;59069;52.242;20.900;2023-11-21T13:55:02;22.10;;;9.20;;
70675;SDS011;59069;52.242;20.900;2023-11-21T13:57:31;19.48;;;8.27;;
70675;SDS011;59069;52.242;20.900;2023-11-21T13:59:57;19.02;;;8.88;;
70675;SDS011;59069;52.242;20.900;2023-11-21T14:02:24;21.50;;;9.88;;
70675;SDS011;59069;52.242;20.900;2023-11-21T14:04:57;28.20;;;10.57;;
70675;SDS011;59069;52.242;20.900;2023-11-21T14:07:25;23.70;;;10.80;;
70675;SDS011;59069;52.242;20.900;2023-11-21T14:10:00;24.88;;;10.82;;
70675;SDS011;59069;52.242;20.900;2023-11-21T14:12:27;26.73;;;11.27;;
70675;SDS011;59069;52.242;20.900;2023-11-21T14:14:53;26.05;;;11.98;;
70675;SDS011;59069;52.242;20.900;2023-11-21T14:17:20;29.77;;;11.43;;
70675;SDS011;59069;52.242;20.900;2023-11-21T14:19:47;23.75;;;10.48;;
70675;SDS011;59069;52.242;20.900;2023-11-21T14:22:14;24.67;;;11.23;;
70675;SDS011;59069;52.242;20.900;2023-11-21T14:24:40;26.83;;;11.57;;
70675;SDS011;59069;52.242;20.900;2023-11-21T14:27:12;26.08;;;10.63;;
70675;SDS011;59069;52.242;20.900;2023-11-21T14:29:38;25.38;;;10.88;;
70675;SDS011;59069;52.242;20.900;2023-11-21T14:32:07;26.83;;;12.45;;
70675;SDS011;59069;52.242;20.900;2023-11-21T14:34:33;24.40;;;11.27;;
70675;SDS011;59069;52.242;20.900;2023-11-21T14:36:58;24.07;;;10.30;;
70675;SDS011;59069;52.242;20.900;2023-11-21T14:39:24;21.58;;;10.05;;
70675;SDS011;59069;52.242;20.900;2023-11-21T14:41:53;22.73;;;9.90;;
70675;SDS011;59069;52.242;20.900;2023-11-21T14:44:21;23.90;;;9.77;;
70675;SDS011;59069;52.242;20.900;2023-11-21T14:46:51;22.50;;;8.98;;